Denison, IA

5:37 AM CST en Febrero 27, 2015 (GMT -0600)
Ridge Road Area | Change Station
CLOSE
Current Station
Estación meteorológica personal
Location: Denison, IA
Altura: 1358 ft
Estaciones meteorológicas cercanas

Alt 1358 ft 42.03 °N, 95.34 °W | Updated 13 minutes ago

Clear
Despejado
-12.3 ° F
Sensación térmica -12 ° F
N
0.0
Viento Variable Viento desde Oeste

Hoy
Alta -- | Baja -- ° F
--% Posibilidad de precipitaciones
Ayer
Alta -- | Baja -- ° F
Precip. -- pul
6:59 AM 6:08 PM
Gibosa creciente, 68% visible
Presión 30.56 pul
Visibilidad 10.0 Millas
Nubes Despejado
Vientos helados -12 ° F
Punto de rocío -16 ° F
Humedad 83%
Precipitaciones 0.00 pul
Espesor de la nieve No disponible.
UV 0 de una escala de 12
Polen .40 de una escala de 12
Calidad del aire No disponible.
Flu Activity No disponible.
METAR KDNS 271115Z AUTO 00000KT 10SM CLR M27/M31 A3056 RMK AO2

More Conditions Fewer Conditions

Presión 30.56 pul
Visibilidad 10.0 Millas
Nubes Despejado
Vientos helados -12 ° F
Punto de rocío -16 ° F
Humedad 83%
Precipitaciones 0.00 pul
Espesor de la nieve No disponible.
UV 0 de una escala de 12
Polen .40 de una escala de 12
Calidad del aire No disponible.
Flu Activity No disponible.
METAR KDNS 271115Z AUTO 00000KT 10SM CLR M27/M31 A3056 RMK AO2

More Conditions Fewer Conditions

10-Day Weather Forecast

Almanac

Astronomía

Feb. 27, 2015 Salida Puesta
Hora real
Crepúsculo civil
Crepúsculo náutico
Crepúsculo astronómico
Luna
Horas de luz
Horas de luz
Tomorrow will be .
, % of the Moon is Illuminated

Extremos de hoy

Máximos del estado Bajos del estado

Community

WunderPhotos

Upload Photos

1,800,656 ¡fotos cargadas!

WunderBlogs® & News

Nearby

Calidad del aire

  Calidad del aire Índice AQ Contaminante
Not available.

Grosos de nieve

Estación Profundido Altura

Actividad de terremotos

Ciudad Distance Mag. Tiempo y dato
Magnitud mínima muestra es 2,5.

Temperaturas de aguas costeras

Lugar Temperatura

Estaciones meteorológicas cercanas